Time;durP1;ratioP1;P1;durP2;ratioP2;P2;SDS_P1;SDS_P2;PMS_P1;PMS_P2;Temp;Humidity;BMP_temperature;BMP_pressure;BME280_temperature;BME280_humidity;BME280_pressure;Samples;Min_cycle;Max_cycle;Signal;HPM_P1;HPM_P2
2023/10/28 00:01:13;;;;;;;3.88;1.73;;;13.80;99.90;;;;;;4841776;29;20027;-79
2023/10/28 00:03:40;;;;;;;3.55;1.77;;;13.80;99.90;;;;;;4841554;29;20049;-80
2023/10/28 00:06:07;;;;;;;4.90;2.35;;;13.70;99.90;;;;;;4841963;29;20057;-80
2023/10/28 00:08:34;;;;;;;11.43;2.15;;;13.70;99.90;;;;;;4841450;29;20052;-80
2023/10/28 00:11:10;;;;;;;3.45;1.85;;;13.60;99.90;;;;;;4841659;29;20060;-80
2023/10/28 00:13:35;;;;;;;2.75;1.80;;;13.60;99.90;;;;;;4841121;29;20045;-80
2023/10/28 00:16:01;;;;;;;3.08;1.63;;;13.60;99.90;;;;;;4833331;29;20398;-80
2023/10/28 00:18:28;;;;;;;5.30;2.33;;;13.60;99.90;;;;;;4837666;29;20038;-79
2023/10/28 00:20:55;;;;;;;5.95;2.40;;;13.60;99.90;;;;;;4841403;29;20018;-79
2023/10/28 00:23:20;;;;;;;4.03;2.45;;;13.60;99.90;;;;;;4841389;29;20068;-80
2023/10/28 00:25:46;;;;;;;3.83;1.85;;;13.60;99.90;;;;;;4841310;29;20377;-80
2023/10/28 00:28:12;;;;;;;3.25;1.88;;;13.60;99.90;;;;;;4841587;29;20065;-79
2023/10/28 00:30:41;;;;;;;2.28;1.60;;;13.50;99.90;;;;;;4824680;29;20106;-80
2023/10/28 00:33:07;;;;;;;4.95;1.65;;;13.50;99.90;;;;;;4825198;29;20094;-79
2023/10/28 00:35:33;;;;;;;7.13;2.17;;;13.40;99.90;;;;;;4841162;29;20033;-79
2023/10/28 00:37:59;;;;;;;3.47;1.70;;;13.30;99.90;;;;;;4841419;29;20073;-79
2023/10/28 00:40:26;;;;;;;4.43;1.80;;;13.40;99.90;;;;;;4841091;29;20486;-77
2023/10/28 00:42:52;;;;;;;5.65;2.30;;;13.30;99.90;;;;;;4844016;29;20033;-77
2023/10/28 00:45:18;;;;;;;4.88;1.92;;;13.30;99.90;;;;;;4834340;29;20034;-80
2023/10/28 00:47:48;;;;;;;3.97;2.50;;;13.30;99.90;;;;;;4824744;29;20402;-77
2023/10/28 00:50:15;;;;;;;5.53;3.20;;;13.40;99.90;;;;;;4841273;29;20091;-79
2023/10/28 00:52:44;;;;;;;6.35;3.25;;;13.40;99.90;;;;;;4841253;29;20041;-79
2023/10/28 00:55:11;;;;;;;7.10;3.65;;;13.50;99.90;;;;;;4824831;29;20045;-79
2023/10/28 00:57:39;;;;;;;6.57;3.60;;;13.50;99.90;;;;;;4840915;29;20033;-79
2023/10/28 01:00:06;;;;;;;7.20;3.30;;;13.60;99.90;;;;;;4825084;29;20034;-79
2023/10/28 01:02:35;;;;;;;7.10;3.33;;;13.70;99.90;;;;;;4824548;29;20022;-79
2023/10/28 01:05:04;;;;;;;7.22;3.60;;;13.70;99.90;;;;;;4841089;29;20437;-79
2023/10/28 01:07:32;;;;;;;7.55;4.72;;;13.70;99.90;;;;;;4824435;29;20071;-79
2023/10/28 01:09:58;;;;;;;10.18;4.53;;;13.70;99.90;;;;;;4826260;29;20133;-77
2023/10/28 01:12:26;;;;;;;11.98;5.00;;;13.70;99.90;;;;;;4844851;29;20038;-78
2023/10/28 01:14:53;;;;;;;12.43;6.00;;;13.70;99.90;;;;;;4844570;29;20034;-79
2023/10/28 01:17:21;;;;;;;10.68;5.53;;;13.70;99.90;;;;;;4844987;29;20136;-79
2023/10/28 01:19:47;;;;;;;9.20;4.35;;;13.70;99.90;;;;;;4844632;29;20066;-77
2023/10/28 01:22:13;;;;;;;8.57;4.18;;;13.80;99.90;;;;;;4844791;29;20459;-79
2023/10/28 01:24:39;;;;;;;11.85;4.88;;;13.70;99.90;;;;;;4844425;29;20052;-78
2023/10/28 01:27:05;;;;;;;9.63;4.63;;;13.70;99.90;;;;;;4844164;29;20105;-78
2023/10/28 01:29:33;;;;;;;6.93;4.00;;;13.70;99.90;;;;;;4844573;29;20471;-79
2023/10/28 01:31:59;;;;;;;10.35;5.45;;;13.70;99.90;;;;;;4844162;29;20033;-79
2023/10/28 01:34:27;;;;;;;15.23;7.18;;;13.70;99.90;;;;;;4844469;29;20034;-78
2023/10/28 01:36:57;;;;;;;15.55;7.28;;;13.70;99.90;;;;;;4832184;29;20061;-79
2023/10/28 01:39:23;;;;;;;11.77;6.80;;;13.70;99.90;;;;;;4844751;29;20037;-80
2023/10/28 01:41:49;;;;;;;11.27;5.60;;;13.70;99.90;;;;;;4827637;29;20034;-79
2023/10/28 01:44:16;;;;;;;8.68;4.38;;;13.70;99.90;;;;;;4844814;29;20030;-79
2023/10/28 01:46:42;;;;;;;6.25;3.80;;;13.70;99.90;;;;;;4844567;29;20030;-79
2023/10/28 01:49:10;;;;;;;11.38;3.53;;;13.60;99.90;;;;;;4827103;29;20034;-79
2023/10/28 01:51:36;;;;;;;7.70;4.40;;;13.60;99.90;;;;;;4827584;29;20041;-79
2023/10/28 01:54:02;;;;;;;7.75;3.95;;;13.50;99.90;;;;;;4843753;29;20083;-79
2023/10/28 01:56:28;;;;;;;8.10;3.65;;;13.50;99.90;;;;;;4843738;29;20044;-79
2023/10/28 01:58:55;;;;;;;9.60;4.55;;;13.60;99.90;;;;;;4827325;29;20072;-78
2023/10/28 02:01:25;;;;;;;6.72;3.90;;;13.60;99.90;;;;;;4844027;29;20026;-79
2023/10/28 02:03:51;;;;;;;6.85;3.80;;;13.60;99.90;;;;;;4843689;29;20512;-79
2023/10/28 02:06:17;;;;;;;10.13;4.50;;;13.60;99.90;;;;;;4827642;29;20097;-77
2023/10/28 02:08:43;;;;;;;9.85;4.63;;;13.60;99.90;;;;;;4826884;29;20137;-78
2023/10/28 02:11:09;;;;;;;8.70;4.20;;;13.60;99.90;;;;;;4843506;29;20046;-79
2023/10/28 02:13:35;;;;;;;7.65;3.72;;;13.60;99.90;;;;;;4827010;29;20036;-75
2023/10/28 02:16:01;;;;;;;10.63;4.22;;;13.50;99.90;;;;;;4843520;29;20398;-79
2023/10/28 02:18:27;;;;;;;6.63;4.03;;;13.50;99.90;;;;;;4826929;29;20041;-79
2023/10/28 02:20:54;;;;;;;8.38;4.28;;;13.40;99.90;;;;;;4826125;29;20410;-78
2023/10/28 02:23:20;;;;;;;6.90;4.00;;;13.30;99.90;;;;;;4826839;29;20406;-79
2023/10/28 02:25:46;;;;;;;10.63;4.55;;;13.30;99.90;;;;;;4843237;29;20026;-79
2023/10/28 02:28:12;;;;;;;12.38;4.18;;;13.30;99.90;;;;;;4843584;29;20040;-79
2023/10/28 02:30:39;;;;;;;24.27;17.73;;;13.20;99.90;;;;;;4843203;29;20036;-79
2023/10/28 02:33:06;;;;;;;16.27;9.45;;;13.20;99.90;;;;;;4843421;29;20041;-79
2023/10/28 02:35:33;;;;;;;15.18;7.43;;;13.20;99.90;;;;;;4843198;29;20030;-77
2023/10/28 02:37:59;;;;;;;10.30;4.93;;;13.20;99.90;;;;;;4843063;29;20042;-78
2023/10/28 02:40:25;;;;;;;11.80;5.15;;;13.20;99.90;;;;;;4826818;29;20489;-78
2023/10/28 02:42:51;;;;;;;9.35;4.88;;;13.20;99.90;;;;;;4826219;29;20042;-74
2023/10/28 02:45:16;;;;;;;15.93;8.35;;;13.10;99.90;;;;;;4826895;29;20046;-79
2023/10/28 02:47:42;;;;;;;14.70;6.30;;;13.00;99.90;;;;;;4842920;29;20046;-79
2023/10/28 02:50:10;;;;;;;8.90;4.03;;;12.90;99.90;;;;;;4826640;29;20478;-79
2023/10/28 02:52:36;;;;;;;8.68;4.78;;;12.80;99.90;;;;;;4826326;29;20046;-79
2023/10/28 02:55:02;;;;;;;7.72;4.40;;;12.70;99.90;;;;;;4843282;29;20052;-77
2023/10/28 02:57:28;;;;;;;15.35;6.90;;;12.60;99.90;;;;;;4826069;29;20127;-77
2023/10/28 02:59:54;;;;;;;11.07;5.47;;;12.70;99.90;;;;;;4826634;29;20133;-79
2023/10/28 03:02:20;;;;;;;9.80;4.72;;;12.70;99.90;;;;;;4825862;29;20030;-75
2023/10/28 03:04:46;;;;;;;11.13;5.22;;;12.80;99.90;;;;;;4842973;29;20029;-79
2023/10/28 03:07:12;;;;;;;13.02;5.03;;;12.80;99.90;;;;;;4842890;29;20163;-79
2023/10/28 03:09:39;;;;;;;12.32;5.03;;;12.80;99.90;;;;;;4825693;29;20530;-79
2023/10/28 03:12:06;;;;;;;12.80;5.38;;;12.80;99.90;;;;;;4842601;29;20030;-78
2023/10/28 03:14:32;;;;;;;10.25;5.05;;;12.90;99.90;;;;;;4826064;29;20037;-79
2023/10/28 03:16:57;;;;;;;9.85;3.95;;;12.90;99.90;;;;;;4825889;29;20061;-79
2023/10/28 03:19:23;;;;;;;11.50;4.80;;;12.90;99.90;;;;;;4825936;29;20387;-79
2023/10/28 03:21:49;;;;;;;10.00;5.38;;;12.90;99.90;;;;;;4842531;29;20073;-75
2023/10/28 03:24:15;;;;;;;11.45;4.13;;;12.90;99.90;;;;;;4826259;29;20367;-79
2023/10/28 03:26:41;;;;;;;9.00;4.32;;;13.00;99.90;;;;;;4842125;29;20029;-77
2023/10/28 03:29:06;;;;;;;8.75;4.45;;;13.10;99.90;;;;;;4842236;29;20026;-77
2023/10/28 03:31:32;;;;;;;10.25;5.35;;;13.10;99.90;;;;;;4841399;29;20034;-79
2023/10/28 03:33:58;;;;;;;11.32;4.97;;;13.10;99.90;;;;;;4842246;29;20026;-79
2023/10/28 03:36:24;;;;;;;8.45;4.78;;;13.10;99.90;;;;;;4842038;29;20038;-77
2023/10/28 03:38:51;;;;;;;8.75;4.78;;;13.20;99.90;;;;;;4826114;29;20050;-79
2023/10/28 03:41:17;;;;;;;10.80;4.93;;;13.10;99.90;;;;;;4842020;29;20076;-78
2023/10/28 03:43:43;;;;;;;12.82;5.35;;;13.20;99.90;;;;;;4842100;29;20517;-78
2023/10/28 03:46:20;;;;;;;9.27;4.78;;;13.10;99.90;;;;;;4841786;29;20030;-79
2023/10/28 03:48:45;;;;;;;7.57;3.75;;;13.10;99.90;;;;;;4841405;29;20466;-79
2023/10/28 03:51:11;;;;;;;12.65;4.60;;;13.10;99.90;;;;;;4841981;29;20061;-79
2023/10/28 03:53:37;;;;;;;10.98;5.22;;;13.10;99.90;;;;;;4841893;29;20090;-77
2023/10/28 03:56:05;;;;;;;9.18;4.43;;;13.10;99.90;;;;;;4841701;29;20030;-78
2023/10/28 03:58:31;;;;;;;8.30;3.60;;;13.10;99.90;;;;;;4841776;29;20041;-79
2023/10/28 04:00:57;;;;;;;7.30;3.38;;;13.10;99.90;;;;;;4841938;29;20034;-79
2023/10/28 04:03:23;;;;;;;7.35;4.30;;;13.10;99.90;;;;;;4841863;29;20033;-79
2023/10/28 04:05:53;;;;;;;4.93;2.90;;;13.00;99.90;;;;;;4841884;29;20022;-78
2023/10/28 04:08:19;;;;;;;8.57;3.25;;;13.00;99.90;;;;;;4841719;29;20364;-79
2023/10/28 04:10:46;;;;;;;7.38;3.60;;;13.00;99.90;;;;;;4841695;29;20037;-78
2023/10/28 04:13:12;;;;;;;5.20;2.92;;;13.00;99.90;;;;;;4841574;29;20117;-78
2023/10/28 04:15:39;;;;;;;6.43;3.15;;;13.00;99.90;;;;;;4846650;29;20116;-78
2023/10/28 04:18:05;;;;;;;6.72;3.13;;;13.00;99.90;;;;;;4841722;29;20033;-78
2023/10/28 04:20:33;;;;;;;6.93;2.92;;;13.00;99.90;;;;;;4841167;29;20022;-78
2023/10/28 04:22:59;;;;;;;5.85;2.95;;;13.00;99.90;;;;;;4841642;29;20431;-79
2023/10/28 04:25:24;;;;;;;6.50;3.28;;;13.00;99.90;;;;;;4841367;29;20109;-77
2023/10/28 04:27:50;;;;;;;8.73;4.07;;;13.00;99.90;;;;;;4841387;29;20051;-78
2023/10/28 04:30:16;;;;;;;6.85;2.90;;;12.90;99.90;;;;;;4841356;29;20387;-78
2023/10/28 04:32:43;;;;;;;7.85;3.03;;;12.90;99.90;;;;;;4841571;29;20159;-78
2023/10/28 04:35:12;;;;;;;4.75;2.67;;;12.90;99.90;;;;;;4841235;29;20479;-78
2023/10/28 04:37:38;;;;;;;6.55;3.30;;;12.90;99.90;;;;;;4841346;29;20504;-78
2023/10/28 04:40:05;;;;;;;7.13;4.25;;;12.90;99.90;;;;;;4841377;29;20381;-79
2023/10/28 04:42:31;;;;;;;10.43;4.30;;;12.80;99.90;;;;;;4840927;29;20030;-78
2023/10/28 04:44:57;;;;;;;10.80;4.45;;;12.80;99.90;;;;;;4841108;29;20038;-79
2023/10/28 04:47:24;;;;;;;11.77;4.63;;;12.80;99.90;;;;;;4841363;29;20048;-78
2023/10/28 04:49:50;;;;;;;15.02;4.68;;;12.80;99.90;;;;;;4841264;29;20038;-74
2023/10/28 04:52:16;;;;;;;13.02;4.88;;;12.80;99.90;;;;;;4841208;29;20034;-75
2023/10/28 04:54:41;;;;;;;15.82;5.18;;;12.80;99.90;;;;;;4841224;29;20374;-78
2023/10/28 04:57:09;;;;;;;9.55;4.57;;;12.70;99.90;;;;;;4840520;29;20474;-78
2023/10/28 04:59:34;;;;;;;8.65;4.05;;;12.80;99.90;;;;;;4841166;29;20432;-79
2023/10/28 05:02:00;;;;;;;10.85;4.20;;;12.80;99.90;;;;;;4840820;29;20082;-78
2023/10/28 05:04:27;;;;;;;10.30;3.88;;;12.80;99.90;;;;;;4841084;29;20387;-78
2023/10/28 05:06:53;;;;;;;9.98;4.15;;;12.70;99.90;;;;;;4841126;29;20074;-78
2023/10/28 05:09:20;;;;;;;6.78;3.75;;;12.70;99.90;;;;;;4841068;29;20138;-77
2023/10/28 05:11:58;;;;;;;7.20;4.28;;;12.70;99.90;;;;;;4840643;29;20030;-78
2023/10/28 05:14:25;;;;;;;18.13;5.68;;;12.70;99.90;;;;;;4840823;29;20034;-77
2023/10/28 05:16:54;;;;;;;10.52;5.63;;;12.70;99.90;;;;;;4840931;29;20041;-78
2023/10/28 05:19:23;;;;;;;10.50;5.60;;;12.70;99.90;;;;;;4840843;29;20494;-78
2023/10/28 05:21:49;;;;;;;12.20;5.80;;;12.70;99.90;;;;;;4840788;29;20030;-77
2023/10/28 05:24:16;;;;;;;15.43;8.07;;;12.70;99.90;;;;;;4841052;29;20628;-78
2023/10/28 05:26:45;;;;;;;12.10;7.38;;;13.00;99.90;;;;;;4840395;29;20067;-78
2023/10/28 05:29:11;;;;;;;20.30;11.93;;;13.20;99.90;;;;;;4840871;29;20033;-77
2023/10/28 05:31:37;;;;;;;15.07;7.25;;;13.20;99.90;;;;;;4840626;29;20503;-76
2023/10/28 05:34:03;;;;;;;13.65;6.10;;;13.00;99.90;;;;;;4840963;29;20025;-77
2023/10/28 05:36:29;;;;;;;14.05;6.45;;;12.90;99.90;;;;;;4840644;29;20034;-78
2023/10/28 05:38:55;;;;;;;12.48;4.88;;;12.90;99.90;;;;;;4840905;29;20036;-78
2023/10/28 05:41:22;;;;;;;35.80;7.80;;;12.80;99.90;;;;;;4840362;29;20026;-77
2023/10/28 05:43:48;;;;;;;8.52;3.15;;;12.70;99.90;;;;;;4840427;29;20037;-77
2023/10/28 05:46:14;;;;;;;6.05;2.30;;;12.60;99.90;;;;;;4841038;29;20029;-78
2023/10/28 05:48:40;;;;;;;5.28;2.58;;;12.50;99.90;;;;;;4840699;29;20078;-78
2023/10/28 05:51:06;;;;;;;6.40;2.50;;;12.70;99.90;;;;;;4840499;29;20424;-76
2023/10/28 05:53:32;;;;;;;11.30;2.75;;;12.70;99.90;;;;;;4840653;29;20042;-78
2023/10/28 05:55:58;;;;;;;15.38;3.22;;;12.60;99.90;;;;;;4842444;29;20030;-76
2023/10/28 05:58:24;;;;;;;10.90;3.45;;;12.50;99.90;;;;;;4843693;29;20438;-78
2023/10/28 06:00:50;;;;;;;12.95;1.98;;;12.60;99.90;;;;;;4844047;29;20033;-78
2023/10/28 06:03:16;;;;;;;5.20;2.13;;;12.40;99.90;;;;;;4842506;29;20034;-78
2023/10/28 06:05:41;;;;;;;4.05;1.90;;;12.50;99.90;;;;;;4843142;29;20060;-77
2023/10/28 06:08:08;;;;;;;3.65;2.05;;;12.60;99.90;;;;;;4844581;29;20029;-75
2023/10/28 06:10:37;;;;;;;7.30;2.53;;;12.70;99.90;;;;;;4817624;29;20058;-75
2023/10/28 06:13:02;;;;;;;4.40;1.90;;;12.80;99.90;;;;;;4838391;29;20034;-75
2023/10/28 06:15:28;;;;;;;4.43;2.30;;;12.80;99.90;;;;;;4832640;29;20026;-75
2023/10/28 06:17:54;;;;;;;7.22;2.65;;;13.10;99.90;;;;;;4840894;29;20029;-76
2023/10/28 06:20:20;;;;;;;5.35;2.15;;;13.10;99.90;;;;;;4839852;29;20034;-75
2023/10/28 06:22:46;;;;;;;5.57;2.10;;;13.20;99.90;;;;;;4840190;29;20045;-77
2023/10/28 06:25:14;;;;;;;6.07;2.30;;;13.30;99.90;;;;;;4841845;29;20482;-76
2023/10/28 06:27:40;;;;;;;3.47;1.60;;;13.40;99.90;;;;;;4843941;29;20034;-76
2023/10/28 06:30:07;;;;;;;4.60;2.05;;;13.40;99.90;;;;;;4839959;29;20490;-75
2023/10/28 06:32:33;;;;;;;7.00;2.38;;;13.60;99.90;;;;;;4831917;29;20034;-76
2023/10/28 06:34:59;;;;;;;5.15;1.90;;;13.80;99.90;;;;;;4841519;29;20026;-76
2023/10/28 06:37:25;;;;;;;5.18;1.98;;;14.10;99.90;;;;;;4844057;29;20046;-77
2023/10/28 06:39:50;;;;;;;5.18;2.20;;;14.20;99.90;;;;;;4829164;29;20038;-77
2023/10/28 06:42:16;;;;;;;4.63;2.30;;;14.40;99.90;;;;;;4836017;29;20026;-77
2023/10/28 06:44:43;;;;;;;4.82;2.20;;;14.40;99.90;;;;;;4835954;29;20022;-76
2023/10/28 06:47:10;;;;;;;6.03;2.50;;;14.60;99.90;;;;;;4810507;29;20030;-76
2023/10/28 06:49:36;;;;;;;5.63;2.22;;;14.70;99.90;;;;;;4835069;29;20429;-76
2023/10/28 06:52:03;;;;;;;8.35;2.92;;;14.80;99.90;;;;;;4835432;29;20117;-76
2023/10/28 06:54:29;;;;;;;8.30;3.10;;;14.80;99.90;;;;;;4812079;29;20086;-76
2023/10/28 06:56:55;;;;;;;7.25;3.15;;;15.00;99.90;;;;;;4854051;29;20483;-76
2023/10/28 06:59:22;;;;;;;6.65;3.13;;;15.10;99.90;;;;;;4828338;29;20026;-75
2023/10/28 07:01:49;;;;;;;7.10;3.08;;;15.20;99.90;;;;;;4831549;29;20098;-74
2023/10/28 07:04:15;;;;;;;8.82;3.42;;;15.30;99.90;;;;;;4826894;29;20026;-76
2023/10/28 07:06:41;;;;;;;7.25;3.58;;;15.50;99.90;;;;;;4814151;29;20041;-75
2023/10/28 07:09:07;;;;;;;6.30;3.47;;;15.60;99.90;;;;;;4829861;29;20105;-77
2023/10/28 07:11:33;;;;;;;8.70;4.60;;;15.70;99.90;;;;;;4830115;29;20038;-78
2023/10/28 07:13:59;;;;;;;11.32;4.78;;;15.80;99.90;;;;;;4831705;29;20095;-75
2023/10/28 07:16:27;;;;;;;9.77;4.00;;;16.00;99.90;;;;;;4829953;29;20046;-76
2023/10/28 07:18:53;;;;;;;9.55;4.38;;;16.10;99.90;;;;;;4841393;29;20018;-76
2023/10/28 07:21:18;;;;;;;7.63;3.75;;;16.10;99.90;;;;;;4840848;29;20044;-77
2023/10/28 07:23:44;;;;;;;11.38;4.10;;;16.20;99.90;;;;;;4838745;29;20026;-75
2023/10/28 07:26:12;;;;;;;6.57;3.78;;;16.10;99.90;;;;;;4826775;29;20066;-75
2023/10/28 07:28:39;;;;;;;9.05;4.05;;;16.20;99.90;;;;;;4842294;29;20543;-77
2023/10/28 07:31:06;;;;;;;12.07;4.80;;;16.30;99.90;;;;;;4843300;29;20034;-75
2023/10/28 07:33:31;;;;;;;8.23;4.28;;;16.40;99.90;;;;;;4824713;29;20034;-77
2023/10/28 07:36:02;;;;;;;9.02;4.95;;;16.40;99.90;;;;;;4831784;29;20045;-76
2023/10/28 07:38:28;;;;;;;8.75;4.75;;;16.50;99.90;;;;;;4832177;29;20113;-74
2023/10/28 07:40:55;;;;;;;11.43;5.13;;;16.60;99.90;;;;;;4843179;29;20083;-77
2023/10/28 07:43:21;;;;;;;8.85;4.68;;;16.70;99.90;;;;;;4843200;29;20077;-76
2023/10/28 07:45:47;;;;;;;9.25;4.85;;;16.90;99.90;;;;;;4842856;29;20057;-75
2023/10/28 07:48:13;;;;;;;10.23;5.43;;;17.10;99.90;;;;;;4842255;29;20393;-77
2023/10/28 07:50:41;;;;;;;12.38;5.28;;;17.20;99.90;;;;;;4840299;29;20117;-74
2023/10/28 07:53:07;;;;;;;11.65;5.75;;;17.30;99.90;;;;;;4837389;29;20112;-76
2023/10/28 07:55:38;;;;;;;14.10;5.13;;;17.30;99.90;;;;;;4842831;29;20551;-76
2023/10/28 07:58:05;;;;;;;10.77;5.88;;;17.30;99.90;;;;;;4843013;29;20390;-76
2023/10/28 08:00:31;;;;;;;9.20;4.85;;;17.40;99.90;;;;;;4842415;29;20026;-77
2023/10/28 08:02:57;;;;;;;12.80;4.95;;;17.50;99.90;;;;;;4833715;29;20040;-76
2023/10/28 08:05:24;;;;;;;8.00;4.57;;;17.60;99.90;;;;;;4827390;29;20387;-75
2023/10/28 08:07:51;;;;;;;9.55;4.45;;;17.60;99.90;;;;;;4830906;29;20026;-74
2023/10/28 08:10:22;;;;;;;9.13;5.10;;;17.60;99.90;;;;;;4840157;29;20046;-77
2023/10/28 08:12:56;;;;;;;11.68;5.43;;;17.40;99.90;;;;;;4835157;29;20483;-75
2023/10/28 08:15:24;;;;;;;9.50;5.18;;;17.50;99.90;;;;;;4808649;29;20111;-75
2023/10/28 08:17:51;;;;;;;7.97;4.47;;;17.60;99.90;;;;;;4824180;29;20096;-75
2023/10/28 08:20:17;;;;;;;10.85;4.85;;;17.70;99.90;;;;;;4825417;29;20046;-74
2023/10/28 08:22:44;;;;;;;11.38;5.50;;;17.70;99.90;;;;;;4841164;29;20030;-77
2023/10/28 08:25:15;;;;;;;11.35;5.00;;;17.90;99.90;;;;;;4842287;29;20041;-77
2023/10/28 08:27:42;;;;;;;15.45;5.68;;;18.00;99.90;;;;;;4842592;29;20034;-76
2023/10/28 08:30:09;;;;;;;14.95;6.35;;;18.20;99.90;;;;;;4854553;29;20049;-74
2023/10/28 08:32:38;;;;;;;8.73;4.88;;;18.50;99.90;;;;;;4836745;29;20030;-76
2023/10/28 08:35:04;;;;;;;9.55;4.50;;;18.50;99.90;;;;;;4833731;29;20026;-76
2023/10/28 08:37:31;;;;;;;10.68;5.38;;;18.70;99.90;;;;;;4829053;29;20070;-78
2023/10/28 08:39:57;;;;;;;8.32;4.65;;;18.80;99.90;;;;;;4832190;29;20041;-78
2023/10/28 08:42:23;;;;;;;7.88;4.55;;;18.90;99.90;;;;;;4823350;29;20043;-78
2023/10/28 08:44:51;;;;;;;10.63;4.85;;;18.80;99.90;;;;;;4840135;29;20033;-78
2023/10/28 08:47:21;;;;;;;7.18;3.55;;;18.90;99.90;;;;;;4841411;29;20046;-78
2023/10/28 08:49:49;;;;;;;8.52;3.50;;;19.00;99.90;;;;;;4841235;29;20174;-78
2023/10/28 08:52:22;;;;;;;11.98;3.20;;;19.10;99.90;;;;;;4841225;29;20394;-77
2023/10/28 08:54:48;;;;;;;8.00;3.35;;;19.00;99.90;;;;;;4829890;29;20026;-78
2023/10/28 08:57:17;;;;;;;6.35;3.05;;;19.10;99.90;;;;;;4841117;29;20041;-77
2023/10/28 08:59:43;;;;;;;6.85;3.28;;;19.10;99.90;;;;;;4841039;29;20137;-78
2023/10/28 09:02:12;;;;;;;7.85;3.70;;;19.20;99.90;;;;;;4841183;29;20546;-78
2023/10/28 09:04:37;;;;;;;7.80;3.00;;;19.10;99.90;;;;;;4841188;29;20033;-78
2023/10/28 09:07:05;;;;;;;7.85;3.20;;;19.20;99.90;;;;;;4840903;29;20033;-78
2023/10/28 09:09:31;;;;;;;5.28;2.58;;;19.20;99.90;;;;;;4841155;29;20390;-78
2023/10/28 09:11:57;;;;;;;6.68;3.33;;;19.40;99.90;;;;;;4824576;29;20145;-78
2023/10/28 09:14:24;;;;;;;7.93;3.40;;;19.40;99.90;;;;;;4841066;29;20030;-78
2023/10/28 09:16:50;;;;;;;8.18;3.20;;;19.30;99.90;;;;;;4840690;29;20137;-77
2023/10/28 09:19:20;;;;;;;7.15;3.10;;;19.40;99.90;;;;;;4841139;29;20117;-78
2023/10/28 09:21:50;;;;;;;11.40;3.83;;;19.50;99.90;;;;;;4836625;29;20498;-78
2023/10/28 09:24:21;;;;;;;8.77;3.33;;;19.60;99.90;;;;;;4849484;29;20370;-78
2023/10/28 09:26:50;;;;;;;5.38;3.25;;;19.70;99.90;;;;;;4843617;29;20509;-78
2023/10/28 09:29:30;;;;;;;7.60;3.00;;;19.70;99.90;;;;;;4840878;29;20797;-78
2023/10/28 09:32:08;;;;;;;8.18;3.17;;;19.50;99.90;;;;;;4844376;29;20034;-78
2023/10/28 09:34:38;;;;;;;9.75;3.45;;;19.40;99.90;;;;;;4844488;29;20431;-79
2023/10/28 09:37:07;;;;;;;8.65;4.13;;;19.30;99.90;;;;;;4844339;29;20068;-78
2023/10/28 09:39:35;;;;;;;7.38;3.20;;;19.20;99.90;;;;;;4844498;29;20026;-78
2023/10/28 09:42:02;;;;;;;8.40;3.88;;;19.10;99.90;;;;;;4844399;29;20044;-77
2023/10/28 09:44:28;;;;;;;11.05;3.88;;;19.10;99.90;;;;;;4844435;29;20052;-78
2023/10/28 09:47:03;;;;;;;12.18;4.28;;;19.30;99.90;;;;;;4844094;29;20566;-77
2023/10/28 09:49:30;;;;;;;12.40;5.57;;;19.20;99.90;;;;;;4843748;29;20026;-78
2023/10/28 09:52:13;;;;;;;11.70;4.55;;;19.20;99.90;;;;;;4844210;29;20037;-79
2023/10/28 09:54:42;;;;;;;8.40;3.80;;;19.10;99.90;;;;;;4832343;29;20030;-79
2023/10/28 09:57:10;;;;;;;9.70;4.25;;;19.20;99.90;;;;;;4843929;29;20458;-79
2023/10/28 09:59:40;;;;;;;8.52;3.67;;;19.30;99.90;;;;;;4843944;29;20026;-77
2023/10/28 10:02:27;;;;;;;8.25;3.88;;;19.30;99.90;;;;;;4843657;29;20121;-77
2023/10/28 10:05:11;;;;;;;7.28;3.60;;;19.30;99.90;;;;;;4844007;29;20049;-78
2023/10/28 10:07:37;;;;;;;8.23;3.60;;;19.50;99.90;;;;;;4843975;29;20547;-79
2023/10/28 10:10:20;;;;;;;7.05;3.30;;;19.70;99.90;;;;;;4843286;29;20091;-79
2023/10/28 10:12:50;;;;;;;11.50;4.10;;;19.90;99.90;;;;;;4843877;29;20027;-79
2023/10/28 10:15:22;;;;;;;8.93;3.47;;;20.00;99.90;;;;;;4843237;29;20034;-78
2023/10/28 10:17:58;;;;;;;10.02;3.55;;;20.10;99.90;;;;;;4843465;29;20046;-77
2023/10/28 10:20:28;;;;;;;7.95;3.60;;;20.20;99.90;;;;;;4843926;29;20026;-78
2023/10/28 10:23:00;;;;;;;9.10;5.05;;;20.30;99.90;;;;;;4843310;29;20049;-78
2023/10/28 10:25:36;;;;;;;10.10;3.80;;;20.40;99.90;;;;;;4843401;29;20026;-79
2023/10/28 10:28:18;;;;;;;10.40;3.20;;;20.50;99.90;;;;;;4843374;29;20030;-78
2023/10/28 10:30:44;;;;;;;8.25;3.75;;;20.50;99.90;;;;;;4852071;29;20367;-79
2023/10/28 10:33:10;;;;;;;8.25;3.20;;;20.50;99.90;;;;;;4830112;29;20391;-78
2023/10/28 10:35:36;;;;;;;10.13;3.78;;;20.60;99.90;;;;;;4843136;29;20038;-79
2023/10/28 10:38:10;;;;;;;9.43;3.83;;;20.60;99.90;;;;;;4843462;29;20109;-77
2023/10/28 10:40:41;;;;;;;8.95;4.18;;;20.70;99.90;;;;;;4853052;29;20034;-78
2023/10/28 10:43:10;;;;;;;9.82;4.35;;;20.70;99.90;;;;;;4844283;29;20038;-78
2023/10/28 10:45:37;;;;;;;8.07;3.63;;;20.80;99.90;;;;;;4843179;29;20030;-77
2023/10/28 10:48:04;;;;;;;9.70;4.18;;;20.80;99.90;;;;;;4842822;29;20048;-79
2023/10/28 10:50:31;;;;;;;8.93;3.65;;;20.90;99.20;;;;;;4843654;29;20379;-79
2023/10/28 10:52:59;;;;;;;7.55;3.53;;;20.80;99.90;;;;;;4860408;29;20101;-78
2023/10/28 10:55:27;;;;;;;5.80;2.63;;;20.80;99.90;;;;;;4833318;29;20448;-78
2023/10/28 10:57:54;;;;;;;8.88;4.05;;;20.80;99.90;;;;;;4842667;29;20478;-78
2023/10/28 11:00:20;;;;;;;9.20;3.45;;;20.90;99.90;;;;;;4842761;29;20026;-77
2023/10/28 11:02:48;;;;;;;8.95;3.92;;;21.10;99.90;;;;;;4830643;29;20030;-78
2023/10/28 11:05:15;;;;;;;10.25;3.40;;;21.20;99.90;;;;;;4842699;29;20030;-78
2023/10/28 11:07:45;;;;;;;8.60;3.60;;;21.20;99.90;;;;;;4842955;29;20054;-79
2023/10/28 11:10:12;;;;;;;9.43;3.97;;;21.30;99.90;;;;;;4842440;29;20057;-77
2023/10/28 11:12:38;;;;;;;10.50;4.25;;;21.20;99.80;;;;;;4842830;29;20111;-79
2023/10/28 11:15:10;;;;;;;7.82;3.97;;;21.20;99.90;;;;;;4842505;29;20026;-78
2023/10/28 11:17:40;;;;;;;8.90;4.50;;;21.30;99.90;;;;;;4842597;29;20054;-77
2023/10/28 11:20:09;;;;;;;10.40;4.78;;;21.30;99.90;;;;;;4842435;29;20109;-76
2023/10/28 11:22:36;;;;;;;18.58;4.82;;;21.30;99.90;;;;;;4842370;29;20064;-77
2023/10/28 11:25:05;;;;;;;7.20;4.22;;;21.40;99.90;;;;;;4842543;29;20061;-77
2023/10/28 11:27:31;;;;;;;8.30;3.28;;;21.40;99.90;;;;;;4851071;29;20025;-77
2023/10/28 11:29:57;;;;;;;7.40;3.85;;;21.50;99.90;;;;;;4845698;29;20038;-76
2023/10/28 11:32:24;;;;;;;6.00;3.13;;;21.60;99.20;;;;;;4842002;29;20026;-77
2023/10/28 11:34:53;;;;;;;10.20;3.13;;;21.70;98.10;;;;;;4857705;29;20033;-77
2023/10/28 11:37:19;;;;;;;11.30;4.57;;;21.60;97.20;;;;;;4850790;29;20034;-77
2023/10/28 11:39:47;;;;;;;10.90;3.97;;;21.60;97.60;;;;;;4842173;29;20034;-78
2023/10/28 11:42:18;;;;;;;5.90;2.53;;;21.60;97.10;;;;;;4842204;29;20022;-76
2023/10/28 11:44:52;;;;;;;8.15;2.60;;;21.50;96.20;;;;;;4841898;29;20030;-78
2023/10/28 11:47:19;;;;;;;5.40;2.75;;;21.50;95.40;;;;;;4841967;29;20112;-78
2023/10/28 11:49:49;;;;;;;6.40;3.25;;;21.50;96.20;;;;;;4839032;29;20050;-78
2023/10/28 11:52:15;;;;;;;5.90;2.90;;;21.60;96.10;;;;;;4841915;29;20037;-77
2023/10/28 11:54:41;;;;;;;10.88;3.20;;;21.70;95.90;;;;;;4840824;29;20026;-76
2023/10/28 11:57:07;;;;;;;8.65;3.13;;;21.90;96.60;;;;;;4840297;29;20085;-75
2023/10/28 11:59:33;;;;;;;7.82;3.28;;;22.00;95.70;;;;;;4841920;29;20025;-76
2023/10/28 12:01:59;;;;;;;10.25;4.13;;;22.20;96.10;;;;;;4837344;29;20079;-76
2023/10/28 12:04:25;;;;;;;7.60;2.45;;;22.40;96.60;;;;;;4844333;29;20509;-75
2023/10/28 12:06:51;;;;;;;5.93;2.33;;;22.50;95.50;;;;;;4859176;29;20394;-76
2023/10/28 12:09:17;;;;;;;4.70;2.08;;;22.70;94.50;;;;;;4850016;29;20575;-77
2023/10/28 12:11:44;;;;;;;7.90;2.90;;;;;;;;;;4842780;29;20041;-77
2023/10/28 12:14:13;;;;;;;6.15;1.92;;;22.50;99.90;;;;;;4842602;29;20176;-78
2023/10/28 12:16:39;;;;;;;5.10;2.08;;;22.80;94.30;;;;;;4842311;29;20038;-78
2023/10/28 12:19:06;;;;;;;4.82;2.20;;;22.80;94.70;;;;;;4842091;29;20474;-78
2023/10/28 12:21:36;;;;;;;5.53;2.22;;;22.90;95.50;;;;;;4842512;29;20062;-77
2023/10/28 12:24:05;;;;;;;5.45;2.92;;;22.80;95.60;;;;;;4848147;29;20391;-79
2023/10/28 12:26:31;;;;;;;7.18;3.42;;;22.70;95.90;;;;;;4839627;29;20109;-79
2023/10/28 12:28:57;;;;;;;9.07;3.33;;;22.60;96.50;;;;;;4833991;29;20041;-79
2023/10/28 12:31:23;;;;;;;17.45;3.85;;;22.60;97.00;;;;;;4842129;29;20025;-77
2023/10/28 12:33:50;;;;;;;4.43;1.85;;;22.50;96.50;;;;;;4841831;29;20026;-79
2023/10/28 12:36:16;;;;;;;5.50;1.77;;;22.40;96.20;;;;;;4842142;29;20113;-79
2023/10/28 12:38:46;;;;;;;3.13;1.20;;;22.60;97.50;;;;;;4846085;29;20175;-78
2023/10/28 12:41:12;;;;;;;7.20;1.20;;;22.30;98.00;;;;;;4846741;29;20030;-78
2023/10/28 12:43:39;;;;;;;7.97;1.67;;;;;;;;;;4850975;29;20040;-78
2023/10/28 12:46:06;;;;;;;3.45;1.27;;;;;;;;;;4832684;29;20398;-79